Time;durP1;ratioP1;P1;durP2;ratioP2;P2;SDS_P1;SDS_P2;PMS_P1;PMS_P2;Temp;Humidity;BMP_temperature;BMP_pressure;BME280_temperature;BME280_humidity;BME280_pressure;Samples;Min_cycle;Max_cycle;Signal;HPM_P1;HPM_P2
2023/05/21 00:01:42;;;;;;;3.40;2.28;;;;;;;10.09;100.00;99331.44;5137792;28;20306;-53
2023/05/21 00:04:10;;;;;;;5.50;2.92;;;;;;;9.93;100.00;99331.50;5137885;27;20312;-58
2023/05/21 00:06:36;;;;;;;10.93;2.10;;;;;;;10.13;100.00;99340.56;5137644;27;20431;-54
2023/05/21 00:09:02;;;;;;;6.15;2.65;;;;;;;10.22;100.00;99346.63;5137802;28;20078;-58
2023/05/21 00:11:28;;;;;;;8.32;2.38;;;;;;;10.23;100.00;99345.50;5137790;28;20061;-61
2023/05/21 00:13:54;;;;;;;6.18;2.45;;;;;;;10.27;100.00;99343.66;5137786;28;20073;-57
2023/05/21 00:16:21;;;;;;;8.00;2.40;;;;;;;10.20;100.00;99318.81;5137611;28;20051;-53
2023/05/21 00:18:48;;;;;;;3.92;2.28;;;;;;;10.18;100.00;99301.91;5137746;28;20054;-60
2023/05/21 00:21:16;;;;;;;3.72;2.30;;;;;;;10.15;100.00;99294.41;5137580;28;20061;-61
2023/05/21 00:23:42;;;;;;;2.75;2.25;;;;;;;10.19;100.00;99316.41;5137439;27;20043;-58
2023/05/21 00:26:07;;;;;;;3.22;2.40;;;;;;;10.21;100.00;99317.66;5137518;28;20053;-55
2023/05/21 00:28:33;;;;;;;4.93;2.25;;;;;;;10.18;100.00;99301.91;5137405;28;20138;-53
2023/05/21 00:30:59;;;;;;;2.75;2.50;;;;;;;10.20;100.00;99305.09;5137423;28;20145;-53
2023/05/21 00:33:25;;;;;;;4.60;2.13;;;;;;;10.13;100.00;99299.47;5137350;28;20356;-55
2023/05/21 00:35:51;;;;;;;4.63;2.10;;;;;;;10.03;100.00;99289.06;5137583;27;20090;-55
2023/05/21 00:38:18;;;;;;;2.40;2.20;;;;;;;10.11;100.00;99288.06;5137290;28;20475;-59
2023/05/21 00:40:44;;;;;;;5.88;2.70;;;;;;;10.07;100.00;99293.47;5137463;28;20395;-61
2023/05/21 00:43:10;;;;;;;3.22;2.40;;;;;;;10.04;100.00;99277.75;5137261;28;20059;-61
2023/05/21 00:45:36;;;;;;;3.63;2.45;;;;;;;10.02;100.00;99271.84;5137401;28;20086;-61
2023/05/21 00:48:03;;;;;;;8.02;2.47;;;;;;;10.02;100.00;99284.72;5137313;28;20163;-52
2023/05/21 00:50:29;;;;;;;5.18;2.30;;;;;;;9.91;100.00;99273.56;5137247;28;20141;-57
2023/05/21 00:52:55;;;;;;;4.68;2.40;;;;;;;10.04;100.00;99268.75;5137110;28;20420;-51
2023/05/21 00:55:22;;;;;;;3.58;2.47;;;;;;;9.97;100.00;99274.06;5137124;27;20507;-60
2023/05/21 00:57:48;;;;;;;2.80;2.30;;;;;;;9.98;100.00;99276.44;5137020;28;20051;-61
2023/05/21 01:00:15;;;;;;;4.20;2.63;;;;;;;9.89;100.00;99271.16;5137063;28;20058;-54
2023/05/21 01:02:42;;;;;;;8.13;2.60;;;;;;;9.93;100.00;99265.78;5136918;28;20149;-53
2023/05/21 01:05:09;;;;;;;3.95;2.22;;;;;;;9.92;100.00;99264.19;5137177;27;20062;-57
2023/05/21 01:07:37;;;;;;;2.22;2.00;;;;;;;9.95;100.00;99273.63;5137194;28;20400;-58
2023/05/21 01:10:06;;;;;;;4.28;2.45;;;;;;;9.89;100.00;99265.69;5137076;28;20378;-59
2023/05/21 01:12:34;;;;;;;2.83;1.90;;;;;;;9.90;100.00;99266.50;5136819;28;20196;-53
2023/05/21 01:15:01;;;;;;;4.82;2.50;;;;;;;9.91;100.00;99270.81;5136942;28;20051;-60
2023/05/21 01:17:30;;;;;;;2.92;2.28;;;;;;;9.71;100.00;99245.34;5138557;27;20055;-61
2023/05/21 01:19:57;;;;;;;3.42;2.30;;;;;;;9.83;100.00;99238.94;5140587;28;20337;-58
2023/05/21 01:22:24;;;;;;;4.50;2.38;;;;;;;9.88;100.00;99255.09;5140391;27;20395;-54
2023/05/21 01:24:51;;;;;;;2.78;2.30;;;;;;;9.82;100.00;99246.34;5140290;28;20051;-56
2023/05/21 01:27:17;;;;;;;6.60;2.30;;;;;;;9.77;100.00;99241.19;5140231;28;20389;-60
2023/05/21 01:29:43;;;;;;;3.35;2.47;;;;;;;9.69;100.00;99224.94;5140523;28;20138;-55
2023/05/21 01:32:16;;;;;;;6.10;2.83;;;;;;;9.75;100.00;99218.81;5140491;28;20062;-55
2023/05/21 01:34:49;;;;;;;7.70;2.67;;;;;;;9.56;100.00;99208.66;5140316;28;20488;-53
2023/05/21 01:37:20;;;;;;;4.25;2.33;;;;;;;9.58;100.00;99211.81;5140351;27;20051;-60
2023/05/21 01:39:55;;;;;;;7.05;2.42;;;;;;;9.56;100.00;99205.09;5140163;28;20119;-56
2023/05/21 01:42:22;;;;;;;2.30;2.10;;;;;;;9.60;100.00;99206.78;5140195;28;20139;-58
2023/05/21 01:44:50;;;;;;;3.63;2.40;;;;;;;9.65;100.00;99201.00;5140136;28;20413;-61
2023/05/21 01:47:17;;;;;;;4.72;2.53;;;;;;;9.63;100.00;99203.34;5140067;28;20495;-59
2023/05/21 01:49:44;;;;;;;7.55;2.25;;;;;;;9.45;100.00;99210.34;5140050;28;20065;-57
2023/05/21 01:52:11;;;;;;;3.75;2.28;;;;;;;9.46;100.00;99205.66;5140027;27;20400;-54
2023/05/21 01:54:37;;;;;;;4.88;2.17;;;;;;;9.46;100.00;99206.44;5140208;28;20063;-59
2023/05/21 01:57:04;;;;;;;6.95;2.28;;;;;;;9.50;100.00;99201.06;5139897;27;20369;-60
2023/05/21 01:59:30;;;;;;;3.78;2.00;;;;;;;9.51;100.00;99194.44;5140101;28;20047;-53
2023/05/21 02:01:56;;;;;;;4.85;2.53;;;;;;;9.48;100.00;99192.41;5139732;27;20051;-55
2023/05/21 02:04:22;;;;;;;5.55;2.50;;;;;;;9.57;100.00;99201.22;5139975;28;20138;-57
2023/05/21 02:06:48;;;;;;;3.00;2.60;;;;;;;9.53;100.00;99186.66;5139705;27;20047;-58
2023/05/21 02:09:14;;;;;;;3.60;2.40;;;;;;;9.52;100.00;99196.03;5139755;28;20051;-60
2023/05/21 02:11:40;;;;;;;4.50;2.92;;;;;;;9.51;100.00;99192.50;5139759;28;20108;-61
2023/05/21 02:14:09;;;;;;;2.47;2.28;;;;;;;9.53;100.00;99187.47;5139699;28;20398;-61
2023/05/21 02:16:35;;;;;;;4.85;2.50;;;;;;;9.54;100.00;99199.22;5139563;28;20071;-60
2023/05/21 02:19:03;;;;;;;3.50;2.70;;;;;;;9.52;100.00;99194.06;5139631;27;20051;-56
2023/05/21 02:21:29;;;;;;;3.78;2.25;;;;;;;9.53;100.00;99194.88;5139584;28;20055;-57
2023/05/21 02:23:56;;;;;;;3.13;2.65;;;;;;;9.30;100.00;99192.81;5139528;28;20434;-61
2023/05/21 02:26:21;;;;;;;3.67;2.53;;;;;;;9.44;100.00;99189.59;5139491;28;20047;-54
2023/05/21 02:28:47;;;;;;;7.28;2.38;;;;;;;9.61;100.00;99182.94;5138310;27;20058;-56
2023/05/21 02:31:14;;;;;;;3.33;2.42;;;;;;;9.66;100.00;99193.59;5139563;28;20104;-58
2023/05/21 02:33:41;;;;;;;4.38;2.67;;;;;;;9.60;100.00;99187.63;5139517;28;20043;-56
2023/05/21 02:36:11;;;;;;;10.25;2.83;;;;;;;9.61;100.00;99185.69;5139364;27;20141;-56
2023/05/21 02:38:39;;;;;;;3.72;2.58;;;;;;;9.61;100.00;99185.69;5139359;27;20432;-55
2023/05/21 02:41:05;;;;;;;3.05;2.75;;;;;;;9.68;100.00;99190.50;5139180;28;20057;-58
2023/05/21 02:43:31;;;;;;;4.55;2.47;;;;;;;9.68;100.00;99190.50;5139230;28;20047;-60
2023/05/21 02:45:57;;;;;;;2.60;2.40;;;;;;;9.73;100.00;99190.22;5139167;27;20192;-61
2023/05/21 02:48:23;;;;;;;4.00;2.30;;;;;;;9.71;100.00;99181.59;5139057;28;20120;-60
2023/05/21 02:50:49;;;;;;;4.85;2.75;;;;;;;9.78;100.00;99192.69;5139314;28;20141;-60
2023/05/21 02:53:15;;;;;;;5.82;2.70;;;;;;;9.79;100.00;99195.06;5139246;28;20122;-53
2023/05/21 02:55:41;;;;;;;3.47;2.70;;;;;;;9.84;100.00;99192.03;5139251;28;20383;-50
2023/05/21 02:58:07;;;;;;;3.25;2.45;;;;;;;9.80;100.00;99193.13;5139123;28;20047;-53
2023/05/21 03:00:33;;;;;;;3.10;2.70;;;;;;;9.87;100.00;99190.53;5138955;28;20093;-56
2023/05/21 03:02:59;;;;;;;4.68;2.72;;;;;;;9.94;100.00;99193.41;5138896;28;20051;-57
2023/05/21 03:05:25;;;;;;;3.20;2.40;;;;;;;9.91;100.00;99194.13;5138973;27;20099;-59
2023/05/21 03:07:52;;;;;;;2.35;2.15;;;;;;;9.96;100.00;99190.31;5138866;28;20047;-55
2023/05/21 03:10:18;;;;;;;5.35;2.83;;;;;;;10.00;100.00;99189.25;5138784;28;20047;-57
2023/05/21 03:12:44;;;;;;;3.40;2.72;;;;;;;10.14;100.00;99194.22;5138773;28;20119;-52
2023/05/21 03:15:13;;;;;;;6.00;3.00;;;;;;;10.04;100.00;99190.09;5138978;28;20047;-59
2023/05/21 03:17:40;;;;;;;3.83;2.60;;;;;;;10.26;100.00;99180.41;5138691;28;20082;-60
2023/05/21 03:20:08;;;;;;;2.70;2.50;;;;;;;10.28;100.00;99177.28;5138808;28;20333;-59
2023/05/21 03:22:36;;;;;;;4.80;2.95;;;;;;;10.45;100.00;99176.81;5138712;28;20061;-59
2023/05/21 03:25:02;;;;;;;2.90;2.60;;;;;;;10.59;100.00;99177.06;5138728;28;20107;-55
2023/05/21 03:27:28;;;;;;;5.47;2.75;;;;;;;10.74;100.00;99177.34;5138485;28;20339;-60
2023/05/21 03:29:54;;;;;;;5.80;2.90;;;;;;;10.73;100.00;99182.03;5138577;28;20134;-61
2023/05/21 03:32:20;;;;;;;3.58;2.95;;;;;;;10.81;100.00;99186.47;5138557;28;20051;-56
2023/05/21 03:34:46;;;;;;;6.43;2.78;;;;;;;10.91;100.00;99184.28;5138315;28;20086;-61
2023/05/21 03:37:12;;;;;;;2.83;2.60;;;;;;;10.98;100.00;99189.88;5138358;27;20062;-61
2023/05/21 03:39:38;;;;;;;4.22;2.60;;;;;;;10.97;100.00;99191.84;5137936;27;20097;-60
2023/05/21 03:42:05;;;;;;;6.30;2.72;;;;;;;11.07;100.00;99190.44;5138216;28;20435;-60
2023/05/21 03:44:31;;;;;;;3.92;2.60;;;;;;;11.25;100.00;99194.25;5138232;27;20047;-54
2023/05/21 03:46:57;;;;;;;3.88;2.40;;;;;;;11.30;100.00;99204.91;5138137;28;20104;-57
2023/05/21 03:49:24;;;;;;;6.05;2.47;;;;;;;11.44;100.00;99203.56;5138360;28;20115;-51
2023/05/21 03:51:50;;;;;;;4.32;2.95;;;;;;;11.58;100.00;99202.97;5138104;28;20408;-51
2023/05/21 03:54:16;;;;;;;3.80;2.70;;;;;;;11.71;100.00;99190.59;5138016;28;20141;-51
2023/05/21 03:56:42;;;;;;;4.03;2.72;;;;;;;11.82;100.00;99201.72;5138213;28;20051;-53
2023/05/21 03:59:08;;;;;;;3.63;2.58;;;;;;;11.99;100.00;99201.19;5138118;28;20185;-51
2023/05/21 04:01:35;;;;;;;8.85;2.83;;;;;;;12.08;100.00;99209.94;5138002;28;20078;-55
2023/05/21 04:04:01;;;;;;;4.07;2.88;;;;;;;12.36;100.00;99212.25;5137963;28;20079;-50
2023/05/21 04:06:27;;;;;;;3.72;2.60;;;;;;;12.40;100.00;99204.84;5137780;27;20054;-59
2023/05/21 04:08:52;;;;;;;3.92;2.50;;;;;;;12.43;100.00;99201.34;5137854;28;20432;-61
2023/05/21 04:11:18;;;;;;;3.63;2.70;;;;;;;12.76;100.00;99202.44;5137835;28;20138;-61
2023/05/21 04:13:46;;;;;;;8.32;2.83;;;;;;;12.85;100.00;99226.88;5137666;28;20328;-56
2023/05/21 04:16:13;;;;;;;8.43;3.17;;;;;;;12.95;100.00;99231.69;5137717;28;20100;-60
2023/05/21 04:18:39;;;;;;;7.13;2.95;;;;;;;13.11;100.00;99225.94;5137905;28;20332;-57
2023/05/21 04:21:05;;;;;;;5.35;2.83;;;;;;;13.21;100.00;99221.72;5137809;28;20047;-60
2023/05/21 04:23:31;;;;;;;6.10;3.22;;;;;;;13.45;100.00;99239.63;5137806;28;20290;-61
2023/05/21 04:25:57;;;;;;;4.63;2.85;;;;;;;13.55;100.00;99271.97;5137620;28;20137;-56
2023/05/21 04:28:23;;;;;;;4.35;3.15;;;;;;;13.59;100.00;99325.88;5137704;28;20078;-56
2023/05/21 04:30:49;;;;;;;5.45;3.67;;;;;;;13.39;100.00;99339.13;5137601;28;20081;-53
2023/05/21 04:33:16;;;;;;;6.68;3.15;;;;;;;13.74;100.00;99370.09;5137450;28;20071;-56
2023/05/21 04:35:43;;;;;;;4.82;3.15;;;;;;;13.54;100.00;99424.63;5137532;27;20054;-61
2023/05/21 04:38:09;;;;;;;5.18;3.60;;;;;;;13.79;100.00;99447.69;5137408;28;20043;-56
2023/05/21 04:40:35;;;;;;;13.00;3.70;;;;;;;13.88;100.00;99461.94;5137405;28;20043;-54
2023/05/21 04:43:01;;;;;;;6.32;3.28;;;;;;;13.83;100.00;99447.75;5137305;27;20138;-57
2023/05/21 04:45:28;;;;;;;13.50;3.67;;;;;;;13.92;100.00;99448.19;5137231;28;20459;-59
2023/05/21 04:47:59;;;;;;;4.45;3.08;;;;;;;14.13;100.00;99461.38;5137482;28;20043;-62
2023/05/21 04:50:25;;;;;;;4.68;3.20;;;;;;;14.39;100.00;99489.94;5137269;28;20043;-62
2023/05/21 04:52:53;;;;;;;5.57;3.30;;;;;;;14.43;100.00;99488.81;5136446;27;20203;-60
2023/05/21 04:55:20;;;;;;;9.18;3.20;;;;;;;14.74;100.00;99517.81;5137374;28;20046;-56
2023/05/21 04:57:45;;;;;;;7.30;3.15;;;;;;;14.73;100.00;99530.03;5137260;28;20054;-53
2023/05/21 05:00:12;;;;;;;9.55;3.05;;;;;;;14.94;100.00;99529.38;5137167;28;20043;-54
2023/05/21 05:02:39;;;;;;;6.65;2.90;;;;;;;14.95;100.00;99550.28;5137024;28;20051;-55
2023/05/21 05:05:06;;;;;;;5.50;2.92;;;;;;;15.02;100.00;99547.56;5137069;27;20110;-60
2023/05/21 05:07:31;;;;;;;5.18;3.30;;;;;;;15.26;100.00;99553.59;5137049;28;20055;-54
2023/05/21 05:09:58;;;;;;;5.65;2.88;;;;;;;15.53;100.00;99563.22;5136979;27;20065;-55
2023/05/21 05:12:24;;;;;;;5.25;2.80;;;;;;;15.75;100.00;99569.63;5136850;28;20130;-57
2023/05/21 05:14:49;;;;;;;3.90;2.92;;;;;;;15.42;100.00;99564.34;5136981;27;20415;-57
2023/05/21 05:17:15;;;;;;;6.65;2.88;;;;;;;15.88;100.00;99616.28;5136883;28;20055;-56
2023/05/21 05:19:41;;;;;;;4.05;2.80;;;;;;;15.75;100.00;99654.53;5137484;28;20096;-54
2023/05/21 05:22:08;;;;;;;5.35;2.85;;;;;;;16.19;100.00;99682.00;5137023;28;20112;-59
2023/05/21 05:24:34;;;;;;;6.28;2.80;;;;;;;16.24;100.00;99684.38;5136993;28;20070;-55
2023/05/21 05:27:00;;;;;;;3.67;2.50;;;;;;;16.51;100.00;99708.94;5136876;28;20321;-57
2023/05/21 05:29:26;;;;;;;4.20;2.97;;;;;;;16.56;100.00;99705.81;5136642;28;20120;-60
2023/05/21 05:31:52;;;;;;;6.30;3.55;;;;;;;16.62;100.00;99692.34;5136781;28;20050;-62
2023/05/21 05:34:18;;;;;;;7.30;2.50;;;;;;;16.42;100.00;99731.44;5136709;28;20075;-62
2023/05/21 05:36:44;;;;;;;8.77;2.63;;;;;;;16.70;100.00;99736.28;5136591;27;20099;-61
2023/05/21 05:39:11;;;;;;;4.13;2.60;;;;;;;17.00;100.00;99746.25;5136604;28;20137;-54
2023/05/21 05:41:37;;;;;;;4.68;2.47;;;;;;;17.09;100.00;99766.06;5136467;28;20047;-62
2023/05/21 05:44:03;;;;;;;4.22;2.25;;;;;;;17.47;100.00;99769.22;5136506;28;20082;-61
2023/05/21 05:46:29;;;;;;;7.80;2.28;;;;;;;17.27;100.00;99768.81;5136666;27;20131;-55
2023/05/21 05:48:55;;;;;;;12.32;2.70;;;;;;;17.38;100.00;99772.38;5136449;28;20102;-56
2023/05/21 05:51:21;;;;;;;6.82;2.67;;;;;;;17.34;100.00;99779.13;5136563;27;20145;-56
2023/05/21 05:53:47;;;;;;;4.28;2.45;;;;;;;17.10;100.00;99767.63;5136457;28;20058;-58
2023/05/21 05:56:15;;;;;;;3.67;2.47;;;;;;;17.84;100.00;99776.34;5136412;28;20424;-58
2023/05/21 05:58:41;;;;;;;3.83;2.40;;;;;;;17.80;100.00;99773.56;5136430;28;20076;-63
2023/05/21 06:01:07;;;;;;;6.07;2.80;;;;;;;18.33;100.00;99792.06;5136165;28;20298;-61
2023/05/21 06:03:33;;;;;;;6.47;2.33;;;;;;;18.48;100.00;99792.00;5137995;27;20424;-58
2023/05/21 06:05:59;;;;;;;3.33;2.28;;;;;;;18.25;100.00;99792.47;5139743;27;20086;-59
2023/05/21 06:08:25;;;;;;;3.45;2.45;;;;;;;18.09;100.00;99804.84;5139653;28;20051;-55
2023/05/21 06:10:51;;;;;;;3.38;2.50;;;;;;;18.61;100.00;99800.69;5139691;28;20104;-56
2023/05/21 06:13:17;;;;;;;8.32;2.45;;;;;;;18.68;100.00;99787.53;5139920;28;20096;-59
2023/05/21 06:15:43;;;;;;;11.93;2.45;;;;;;;18.93;100.00;99800.53;5139985;28;20145;-58
2023/05/21 06:18:10;;;;;;;6.97;2.20;;;;;;;19.27;99.23;99812.63;5139606;28;20058;-58
2023/05/21 06:20:36;;;;;;;10.80;2.50;;;;;;;19.26;95.51;99815.81;5139562;28;20086;-60
2023/05/21 06:23:02;;;;;;;8.98;2.17;;;;;;;19.54;94.04;99814.00;5139433;28;20057;-55
2023/05/21 06:25:27;;;;;;;7.22;2.65;;;;;;;19.79;91.80;99819.38;5139528;28;20051;-56
2023/05/21 06:27:53;;;;;;;6.45;2.05;;;;;;;19.67;90.82;99823.47;5139504;28;20050;-60
2023/05/21 06:30:20;;;;;;;3.17;2.20;;;;;;;20.10;86.63;99826.63;5139375;28;20093;-58
2023/05/21 06:32:46;;;;;;;12.90;2.47;;;;;;;20.39;92.21;99809.59;5139303;28;20065;-59
2023/05/21 06:35:12;;;;;;;14.15;2.50;;;;;;;21.04;82.55;99827.09;5139302;27;20079;-57
2023/05/21 06:37:38;;;;;;;4.82;3.08;;;;;;;21.63;79.66;99831.41;5139238;28;20081;-59
2023/05/21 06:40:05;;;;;;;5.82;2.17;;;;;;;21.90;77.27;99831.34;5139260;28;20054;-62
2023/05/21 06:42:31;;;;;;;6.85;2.40;;;;;;;22.19;74.83;99834.44;5139076;28;20128;-57
2023/05/21 06:44:57;;;;;;;7.35;2.70;;;;;;;22.85;71.69;99829.13;5139306;28;20089;-56
2023/05/21 06:47:23;;;;;;;5.38;2.00;;;;;;;23.04;69.30;99839.50;5139293;28;20069;-59
2023/05/21 06:49:49;;;;;;;2.67;2.08;;;;;;;22.82;71.75;99832.78;5139248;28;20143;-57
2023/05/21 06:52:15;;;;;;;3.33;2.10;;;;;;;23.39;70.50;99825.91;5139165;28;20476;-57
2023/05/21 06:54:41;;;;;;;4.30;2.75;;;;;;;24.11;66.64;99836.13;5138826;27;20134;-60
2023/05/21 06:57:07;;;;;;;4.47;2.83;;;;;;;24.38;66.10;99824.56;5138815;28;20366;-53
2023/05/21 06:59:33;;;;;;;7.95;2.88;;;;;;;25.14;64.43;99826.78;5138746;28;20142;-50
2023/05/21 07:01:59;;;;;;;6.13;2.70;;;;;;;25.11;64.61;99819.25;5138743;28;20164;-50
2023/05/21 07:04:25;;;;;;;12.25;2.55;;;;;;;24.78;63.17;99827.84;5138895;28;20089;-53
2023/05/21 07:06:52;;;;;;;2.83;1.98;;;;;;;23.96;62.39;99821.72;5138711;27;20051;-50
2023/05/21 07:09:18;;;;;;;8.15;2.10;;;;;;;25.07;61.32;99818.56;5138642;28;20054;-52
2023/05/21 07:11:44;;;;;;;5.30;2.40;;;;;;;25.00;60.51;99810.38;5138642;28;20099;-54
2023/05/21 07:14:10;;;;;;;7.25;2.40;;;;;;;24.67;61.89;99815.38;5138400;27;20074;-59
2023/05/21 07:16:36;;;;;;;5.43;2.13;;;;;;;25.80;59.70;99807.44;5138324;28;20408;-59
2023/05/21 07:19:02;;;;;;;6.82;2.30;;;;;;;24.01;60.04;99806.38;5138799;28;20069;-54
2023/05/21 07:21:28;;;;;;;5.18;2.30;;;;;;;24.42;61.07;99798.06;5138633;28;20051;-54
2023/05/21 07:23:55;;;;;;;3.00;2.08;;;;;;;24.65;59.52;99801.78;5138676;28;20051;-54
2023/05/21 07:26:21;;;;;;;4.55;2.00;;;;;;;25.20;59.00;99799.75;5138471;27;20050;-53
2023/05/21 07:28:47;;;;;;;7.45;2.10;;;;;;;25.50;57.52;99797.59;5138401;28;20050;-50
2023/05/21 07:31:13;;;;;;;3.90;1.75;;;;;;;24.99;56.91;99801.19;5138494;28;20053;-50
2023/05/21 07:33:39;;;;;;;10.77;1.65;;;;;;;25.93;56.27;99794.13;5138407;28;20070;-57
2023/05/21 07:36:05;;;;;;;2.97;1.52;;;;;;;25.80;54.97;99794.16;5138309;27;20047;-59
2023/05/21 07:38:32;;;;;;;2.97;1.30;;;;;;;25.31;55.42;99796.59;5138310;28;20142;-52
2023/05/21 07:40:57;;;;;;;1.67;1.40;;;;;;;24.73;56.79;99788.38;5138224;28;20138;-52
2023/05/21 07:43:23;;;;;;;1.75;1.50;;;;;;;24.78;55.52;99788.59;5138355;28;20142;-52
2023/05/21 07:45:50;;;;;;;2.30;1.70;;;;;;;24.03;55.76;99787.13;5138299;28;20043;-53
2023/05/21 07:48:15;;;;;;;3.17;1.27;;;;;;;25.39;55.05;99786.72;5137997;28;20315;-60
2023/05/21 07:50:41;;;;;;;5.80;1.50;;;;;;;24.77;56.09;99772.22;5138241;28;20083;-58
2023/05/21 07:53:07;;;;;;;7.30;1.40;;;;;;;25.68;54.31;99777.31;5138090;28;20138;-55
2023/05/21 07:55:34;;;;;;;3.35;1.48;;;;;;;25.65;53.81;99773.38;5138034;28;20158;-53
2023/05/21 07:58:00;;;;;;;1.83;1.30;;;;;;;24.67;53.71;99782.53;5138101;28;20047;-57
2023/05/21 08:00:26;;;;;;;1.40;1.30;;;;;;;24.11;53.01;99782.91;5138018;28;20062;-53
2023/05/21 08:02:52;;;;;;;1.30;1.20;;;;;;;24.29;53.05;99786.00;5137899;28;20054;-60
2023/05/21 08:05:19;;;;;;;3.60;1.58;;;;;;;25.27;51.93;99781.91;5137862;27;20430;-61
2023/05/21 08:07:45;;;;;;;14.05;2.22;;;;;;;25.05;53.15;99776.94;5137807;28;20051;-59
2023/05/21 08:10:11;;;;;;;2.42;1.45;;;;;;;25.19;52.96;99770.13;5137619;27;20051;-57
2023/05/21 08:12:38;;;;;;;2.90;1.52;;;;;;;25.06;53.54;99783.34;5137757;28;20112;-54
2023/05/21 08:15:05;;;;;;;1.52;1.42;;;;;;;26.21;51.79;99781.06;5137805;27;20043;-56
2023/05/21 08:17:30;;;;;;;1.50;1.40;;;;;;;26.06;51.81;99782.84;5137764;28;20106;-53
2023/05/21 08:19:56;;;;;;;4.45;1.45;;;;;;;25.10;52.03;99770.75;5137821;28;20092;-50
2023/05/21 08:22:22;;;;;;;3.42;1.70;;;;;;;25.49;51.91;99765.13;5137570;28;20554;-55
2023/05/21 08:24:48;;;;;;;2.70;1.70;;;;;;;24.14;52.89;99762.41;5137632;28;20082;-53
2023/05/21 08:27:15;;;;;;;1.75;1.60;;;;;;;25.02;52.68;99758.19;5136377;27;20069;-55
2023/05/21 08:29:42;;;;;;;3.30;1.83;;;;;;;24.68;52.28;99752.47;5137591;28;20137;-58
2023/05/21 08:32:08;;;;;;;3.60;1.80;;;;;;;24.99;51.52;99753.50;5137517;28;20137;-55
2023/05/21 08:34:34;;;;;;;2.95;1.70;;;;;;;22.62;54.16;99762.94;5137502;28;20107;-58
2023/05/21 08:37:00;;;;;;;2.25;1.75;;;;;;;24.50;54.28;99744.59;5137316;27;20051;-60
2023/05/21 08:39:26;;;;;;;2.42;1.90;;;;;;;25.17;52.06;99749.38;5137261;28;20086;-59
2023/05/21 08:42:01;;;;;;;7.85;2.13;;;;;;;24.62;52.68;99747.44;5137550;28;20047;-56
2023/05/21 08:44:32;;;;;;;2.25;1.67;;;;;;;24.92;52.38;99750.13;5137490;28;20051;-55
2023/05/21 08:47:04;;;;;;;1.85;1.75;;;;;;;25.00;51.46;99757.88;5137427;27;20366;-58
2023/05/21 08:49:34;;;;;;;3.83;1.65;;;;;;;25.28;51.96;99741.38;5137430;28;20062;-61
2023/05/21 08:52:00;;;;;;;3.28;1.50;;;;;;;24.86;50.34;99733.88;5137177;28;20420;-60
2023/05/21 08:54:26;;;;;;;3.40;1.77;;;;;;;24.83;53.18;99743.19;5137272;28;20141;-55
2023/05/21 08:56:54;;;;;;;2.92;2.05;;;;;;;25.07;53.52;99745.63;5137232;28;20051;-52
2023/05/21 08:59:21;;;;;;;4.00;1.73;;;;;;;25.03;53.81;99734.53;5137145;28;20058;-52
2023/05/21 09:01:48;;;;;;;3.38;1.50;;;;;;;25.62;51.97;99735.00;5136953;28;20062;-50
2023/05/21 09:04:16;;;;;;;2.70;1.88;;;;;;;26.32;50.13;99732.91;5137078;28;20141;-57
2023/05/21 09:06:43;;;;;;;2.42;1.60;;;;;;;26.27;49.90;99725.84;5137222;27;20115;-52
2023/05/21 09:09:26;;;;;;;3.97;1.63;;;;;;;25.26;50.29;99727.03;5136982;28;20051;-58
2023/05/21 09:11:52;;;;;;;3.65;1.65;;;;;;;25.69;51.35;99725.53;5137097;28;20061;-51
2023/05/21 09:14:19;;;;;;;2.22;1.70;;;;;;;26.30;51.41;99729.78;5136864;28;20046;-55
2023/05/21 09:16:46;;;;;;;2.60;1.67;;;;;;;26.02;50.66;99729.59;5136906;28;20138;-55
2023/05/21 09:19:12;;;;;;;4.38;1.83;;;;;;;25.11;51.58;99721.84;5136706;28;20051;-54
2023/05/21 09:21:39;;;;;;;1.70;1.60;;;;;;;25.53;51.30;99716.06;5136639;28;20141;-53
2023/05/21 09:24:08;;;;;;;4.85;1.67;;;;;;;25.70;51.74;99711.06;5136624;28;20378;-55
2023/05/21 09:26:34;;;;;;;1.60;1.50;;;;;;;25.41;51.86;99714.06;5136465;28;20051;-56
2023/05/21 09:29:00;;;;;;;2.85;1.65;;;;;;;26.65;51.14;99707.94;5136632;28;20097;-53
2023/05/21 09:31:26;;;;;;;4.47;1.90;;;;;;;25.73;52.53;99710.16;5136928;28;20055;-51
2023/05/21 09:33:54;;;;;;;4.15;1.50;;;;;;;27.19;50.92;99709.44;5136954;28;20192;-60
2023/05/21 09:36:20;;;;;;;1.77;1.67;;;;;;;27.42;50.57;99699.63;5136844;27;20124;-55
2023/05/21 09:38:47;;;;;;;1.58;1.40;;;;;;;25.81;51.10;99696.66;5138865;27;20137;-60
2023/05/21 09:41:13;;;;;;;2.05;1.70;;;;;;;26.68;51.51;99701.41;5140422;28;20203;-57
2023/05/21 09:43:41;;;;;;;1.60;1.50;;;;;;;26.18;50.69;99703.31;5140310;28;20047;-60
2023/05/21 09:46:07;;;;;;;3.33;1.60;;;;;;;25.00;51.05;99689.78;5140156;28;20058;-54
2023/05/21 09:48:35;;;;;;;2.13;1.45;;;;;;;26.42;49.52;99678.28;5140065;28;20051;-53
2023/05/21 09:51:14;;;;;;;6.30;1.70;;;;;;;24.98;50.16;99672.59;5140081;28;20050;-56
2023/05/21 09:53:47;;;;;;;5.80;1.95;;;;;;;24.88;51.99;99675.28;5140026;27;20059;-53
2023/05/21 09:56:14;;;;;;;4.68;1.80;;;;;;;26.45;53.03;99685.03;5140254;28;20047;-60
2023/05/21 09:58:40;;;;;;;2.20;1.70;;;;;;;26.53;51.47;99680.75;5140188;27;20134;-59
2023/05/21 10:01:06;;;;;;;2.72;1.80;;;;;;;26.04;52.70;99682.16;5140058;28;20051;-56
2023/05/21 10:03:37;;;;;;;2.17;1.60;;;;;;;26.61;52.68;99679.19;5139922;27;20073;-59
2023/05/21 10:06:04;;;;;;;4.70;1.80;;;;;;;26.09;52.37;99668.75;5139770;27;20047;-55
2023/05/21 10:08:35;;;;;;;13.80;1.80;;;;;;;25.00;52.03;99665.31;5139712;28;20531;-59
2023/05/21 10:11:02;;;;;;;2.92;1.60;;;;;;;23.61;55.47;99672.25;5139831;28;20119;-52
2023/05/21 10:13:29;;;;;;;1.67;1.58;;;;;;;24.33;55.17;99659.81;5139739;28;20336;-59
2023/05/21 10:16:00;;;;;;;2.97;1.70;;;;;;;24.48;54.97;99669.38;5139678;28;20188;-55
2023/05/21 10:18:27;;;;;;;2.25;1.80;;;;;;;25.14;53.08;99663.28;5139606;28;20084;-52
2023/05/21 10:20:55;;;;;;;2.42;1.70;;;;;;;25.70;53.04;99657.69;5139833;28;20116;-57
2023/05/21 10:23:23;;;;;;;2.53;1.48;;;;;;;25.80;54.01;99653.75;5139406;28;20058;-51
2023/05/21 10:25:49;;;;;;;1.83;1.65;;;;;;;25.10;53.40;99652.94;5139633;28;20051;-54
2023/05/21 10:28:16;;;;;;;2.20;1.60;;;;;;;24.79;53.07;99664.00;5139701;28;20066;-52
2023/05/21 10:30:43;;;;;;;5.72;1.70;;;;;;;22.97;55.35;99660.72;5139447;28;20435;-57
2023/05/21 10:33:12;;;;;;;12.77;1.92;;;;;;;23.47;56.49;99657.41;5139454;28;20057;-52
2023/05/21 10:35:39;;;;;;;2.28;1.85;;;;;;;23.53;58.94;99654.88;5139359;27;20360;-55
2023/05/21 10:38:07;;;;;;;2.70;2.00;;;;;;;24.19;56.48;99655.41;5139427;28;20133;-57
2023/05/21 10:40:35;;;;;;;5.28;2.00;;;;;;;25.13;53.90;99653.31;5139278;28;20058;-54
2023/05/21 10:43:30;;;;;;;32.25;2.25;;;;;;;24.27;54.91;99656.00;5139089;27;20424;-59
2023/05/21 10:46:12;;;;;;;2.38;1.90;;;;;;;23.48;56.93;99650.59;5139402;28;20137;-56
2023/05/21 10:48:56;;;;;;;4.93;1.73;;;;;;;22.61;57.98;99655.19;5139214;27;20147;-60
2023/05/21 10:51:24;;;;;;;4.05;1.80;;;;;;;22.41;58.24;99646.84;5138533;28;20046;-56
2023/05/21 10:54:07;;;;;;;2.10;1.80;;;;;;;22.95;59.02;99643.59;5139128;28;20043;-55
2023/05/21 10:56:41;;;;;;;1.40;1.30;;;;;;;22.82;59.05;99646.25;5138992;28;20111;-52
2023/05/21 10:59:17;;;;;;;1.42;1.30;;;;;;;23.37;55.72;99641.72;5139223;28;20080;-50
2023/05/21 11:01:44;;;;;;;4.50;1.77;;;;;;;23.80;55.93;99643.34;5139077;28;20062;-59
2023/05/21 11:04:11;;;;;;;2.53;1.48;;;;;;;23.64;54.85;99652.56;5139075;28;20051;-50
2023/05/21 11:06:37;;;;;;;4.40;1.73;;;;;;;22.61;55.63;99655.97;5138920;27;20051;-54
2023/05/21 11:09:11;;;;;;;3.97;1.70;;;;;;;22.63;56.86;99647.16;5139565;28;20079;-59
2023/05/21 11:11:42;;;;;;;1.98;1.50;;;;;;;22.51;56.08;99641.00;5138883;28;20047;-58
2023/05/21 11:14:26;;;;;;;5.93;1.45;;;;;;;22.41;56.68;99630.88;5138872;28;20047;-55
2023/05/21 11:16:52;;;;;;;2.35;1.42;;;;;;;22.34;56.94;99627.47;5138543;28;20142;-55
2023/05/21 11:19:19;;;;;;;2.75;1.50;;;;;;;22.41;57.39;99630.88;5138757;28;20106;-54
2023/05/21 11:21:50;;;;;;;1.60;1.45;;;;;;;21.88;58.33;99638.38;5138676;28;20129;-59
2023/05/21 11:24:19;;;;;;;7.53;1.40;;;;;;;21.65;58.98;99627.28;5138547;28;20260;-53
2023/05/21 11:27:03;;;;;;;3.83;1.30;;;;;;;21.66;59.25;99634.44;5138549;28;20399;-55
2023/05/21 11:29:46;;;;;;;4.28;1.60;;;;;;;21.68;60.31;99630.00;5138515;27;20051;-50